Sterling, Colorado
Current Conditions -  °F | °C
As of 7:50 PM on Sunday 21 Dec 2014 (Local Time) from KSTK Reporting Station
Overcast Overcast  
Wind Chill: 43°   Ceiling: 7500
Heat Index: 43°   Visibility: 10mi
Dew Point: 36°   Wind: 3mph
Humidity: 76%   Direction: 260°W
Pressure: 29.53"   Gusts: NA
Location:  40.63°N, 103.2°W
Report Text: KSTK 220250Z AUTO 26003KT 10SM SCT043 BKN075 OVC090 06/02 A2953 RMK AO2
Loading
Personal Weather Stations






























Interactive Weather Map New forecast layout! Learn more

10-Day Weather Forecast

Advertisements
Track Severe Weather on mobile